sensor_id;sensor_type;location;lat;lon;timestamp;P1;durP1;ratioP1;P2;durP2;ratioP2
21198;SDS011;10757;51.038;3.712;2023-02-15T00:01:43;105.90;;;63.42;;
21198;SDS011;10757;51.038;3.712;2023-02-15T00:04:12;112.82;;;65.82;;
21198;SDS011;10757;51.038;3.712;2023-02-15T00:06:39;102.05;;;59.40;;
21198;SDS011;10757;51.038;3.712;2023-02-15T00:09:05;105.85;;;63.72;;
21198;SDS011;10757;51.038;3.712;2023-02-15T00:11:31;102.45;;;61.75;;
21198;SDS011;10757;51.038;3.712;2023-02-15T00:14:22;94.20;;;59.70;;
21198;SDS011;10757;51.038;3.712;2023-02-15T00:16:49;107.75;;;63.10;;
21198;SDS011;10757;51.038;3.712;2023-02-15T00:19:17;102.93;;;61.38;;
21198;SDS011;10757;51.038;3.712;2023-02-15T00:21:44;100.70;;;61.97;;
21198;SDS011;10757;51.038;3.712;2023-02-15T00:24:12;98.30;;;58.47;;
21198;SDS011;10757;51.038;3.712;2023-02-15T00:26:40;96.32;;;58.97;;
21198;SDS011;10757;51.038;3.712;2023-02-15T00:29:08;95.38;;;57.72;;
21198;SDS011;10757;51.038;3.712;2023-02-15T00:31:34;107.25;;;62.08;;
21198;SDS011;10757;51.038;3.712;2023-02-15T00:34:05;98.03;;;58.83;;
21198;SDS011;10757;51.038;3.712;2023-02-15T00:36:32;104.20;;;62.33;;
21198;SDS011;10757;51.038;3.712;2023-02-15T00:38:58;104.03;;;59.17;;
21198;SDS011;10757;51.038;3.712;2023-02-15T00:41:24;95.80;;;58.40;;
21198;SDS011;10757;51.038;3.712;2023-02-15T00:43:50;100.63;;;62.65;;
21198;SDS011;10757;51.038;3.712;2023-02-15T00:46:16;106.45;;;60.65;;
21198;SDS011;10757;51.038;3.712;2023-02-15T00:48:41;106.22;;;61.70;;
21198;SDS011;10757;51.038;3.712;2023-02-15T00:51:07;102.70;;;61.05;;
21198;SDS011;10757;51.038;3.712;2023-02-15T00:53:33;99.07;;;61.28;;
21198;SDS011;10757;51.038;3.712;2023-02-15T00:55:59;105.93;;;58.80;;
21198;SDS011;10757;51.038;3.712;2023-02-15T00:58:24;103.43;;;62.13;;
21198;SDS011;10757;51.038;3.712;2023-02-15T01:00:50;105.95;;;62.28;;
21198;SDS011;10757;51.038;3.712;2023-02-15T01:03:17;101.70;;;59.88;;
21198;SDS011;10757;51.038;3.712;2023-02-15T01:05:45;101.95;;;60.33;;
21198;SDS011;10757;51.038;3.712;2023-02-15T01:08:12;102.03;;;59.30;;
21198;SDS011;10757;51.038;3.712;2023-02-15T01:10:38;102.68;;;61.03;;
21198;SDS011;10757;51.038;3.712;2023-02-15T01:13:04;104.18;;;63.72;;
21198;SDS011;10757;51.038;3.712;2023-02-15T01:15:30;101.30;;;62.08;;
21198;SDS011;10757;51.038;3.712;2023-02-15T01:17:59;111.55;;;64.03;;
21198;SDS011;10757;51.038;3.712;2023-02-15T01:20:26;103.45;;;60.70;;
21198;SDS011;10757;51.038;3.712;2023-02-15T01:22:53;110.70;;;61.17;;
21198;SDS011;10757;51.038;3.712;2023-02-15T01:25:20;113.70;;;63.45;;
21198;SDS011;10757;51.038;3.712;2023-02-15T01:27:47;108.78;;;63.38;;
21198;SDS011;10757;51.038;3.712;2023-02-15T01:30:13;111.95;;;64.63;;
21198;SDS011;10757;51.038;3.712;2023-02-15T01:32:41;108.75;;;64.63;;
21198;SDS011;10757;51.038;3.712;2023-02-15T01:35:08;115.00;;;65.03;;
21198;SDS011;10757;51.038;3.712;2023-02-15T01:37:35;113.95;;;64.47;;
21198;SDS011;10757;51.038;3.712;2023-02-15T01:42:32;114.30;;;64.28;;
21198;SDS011;10757;51.038;3.712;2023-02-15T01:45:02;110.15;;;65.85;;
21198;SDS011;10757;51.038;3.712;2023-02-15T01:50:25;107.07;;;64.30;;
21198;SDS011;10757;51.038;3.712;2023-02-15T01:53:03;105.18;;;62.78;;
21198;SDS011;10757;51.038;3.712;2023-02-15T01:55:38;100.22;;;61.13;;
21198;SDS011;10757;51.038;3.712;2023-02-15T01:58:09;110.35;;;61.17;;
21198;SDS011;10757;51.038;3.712;2023-02-15T02:00:36;97.45;;;60.50;;
21198;SDS011;10757;51.038;3.712;2023-02-15T02:03:02;107.72;;;61.85;;
21198;SDS011;10757;51.038;3.712;2023-02-15T02:05:28;110.40;;;64.20;;
21198;SDS011;10757;51.038;3.712;2023-02-15T02:07:56;104.68;;;61.67;;
21198;SDS011;10757;51.038;3.712;2023-02-15T02:10:23;105.90;;;63.88;;
21198;SDS011;10757;51.038;3.712;2023-02-15T02:12:51;104.63;;;62.00;;
21198;SDS011;10757;51.038;3.712;2023-02-15T02:15:22;112.45;;;65.30;;
21198;SDS011;10757;51.038;3.712;2023-02-15T02:18:16;108.07;;;64.43;;
21198;SDS011;10757;51.038;3.712;2023-02-15T02:34:46;113.82;;;64.90;;
21198;SDS011;10757;51.038;3.712;2023-02-15T02:37:28;119.60;;;66.32;;
21198;SDS011;10757;51.038;3.712;2023-02-15T02:40:13;117.45;;;69.13;;
21198;SDS011;10757;51.038;3.712;2023-02-15T02:42:50;116.05;;;66.68;;
21198;SDS011;10757;51.038;3.712;2023-02-15T02:45:58;114.43;;;64.65;;
21198;SDS011;10757;51.038;3.712;2023-02-15T02:48:32;118.32;;;67.45;;
21198;SDS011;10757;51.038;3.712;2023-02-15T02:50:58;117.80;;;64.75;;
21198;SDS011;10757;51.038;3.712;2023-02-15T02:53:24;123.90;;;67.03;;
21198;SDS011;10757;51.038;3.712;2023-02-15T02:55:58;112.45;;;64.53;;
21198;SDS011;10757;51.038;3.712;2023-02-15T03:01:12;115.40;;;62.63;;
21198;SDS011;10757;51.038;3.712;2023-02-15T03:03:49;115.03;;;63.50;;
21198;SDS011;10757;51.038;3.712;2023-02-15T03:06:44;113.10;;;64.28;;
21198;SDS011;10757;51.038;3.712;2023-02-15T03:09:19;118.57;;;63.95;;
21198;SDS011;10757;51.038;3.712;2023-02-15T03:12:06;118.22;;;62.00;;
21198;SDS011;10757;51.038;3.712;2023-02-15T03:14:38;114.20;;;63.05;;
21198;SDS011;10757;51.038;3.712;2023-02-15T03:17:05;110.80;;;62.97;;
21198;SDS011;10757;51.038;3.712;2023-02-15T03:19:33;113.47;;;62.78;;
21198;SDS011;10757;51.038;3.712;2023-02-15T03:24:59;114.10;;;63.80;;
21198;SDS011;10757;51.038;3.712;2023-02-15T03:27:44;109.63;;;60.60;;
21198;SDS011;10757;51.038;3.712;2023-02-15T03:30:18;113.78;;;61.35;;
21198;SDS011;10757;51.038;3.712;2023-02-15T03:32:45;111.20;;;61.78;;
21198;SDS011;10757;51.038;3.712;2023-02-15T03:35:13;117.18;;;64.35;;
21198;SDS011;10757;51.038;3.712;2023-02-15T03:37:41;106.78;;;61.40;;
21198;SDS011;10757;51.038;3.712;2023-02-15T03:45:39;107.97;;;63.17;;
21198;SDS011;10757;51.038;3.712;2023-02-15T03:48:20;107.07;;;60.92;;
21198;SDS011;10757;51.038;3.712;2023-02-15T03:50:52;113.47;;;63.38;;
21198;SDS011;10757;51.038;3.712;2023-02-15T03:53:41;108.28;;;59.95;;
21198;SDS011;10757;51.038;3.712;2023-02-15T03:56:08;115.97;;;62.65;;
21198;SDS011;10757;51.038;3.712;2023-02-15T03:58:33;112.85;;;59.95;;
21198;SDS011;10757;51.038;3.712;2023-02-15T04:01:20;110.15;;;60.03;;
21198;SDS011;10757;51.038;3.712;2023-02-15T04:04:11;114.47;;;60.58;;
21198;SDS011;10757;51.038;3.712;2023-02-15T04:06:43;109.47;;;59.75;;
21198;SDS011;10757;51.038;3.712;2023-02-15T04:09:08;109.28;;;60.75;;
21198;SDS011;10757;51.038;3.712;2023-02-15T04:11:53;119.68;;;59.20;;
21198;SDS011;10757;51.038;3.712;2023-02-15T04:14:18;113.05;;;61.83;;
21198;SDS011;10757;51.038;3.712;2023-02-15T04:17:05;108.10;;;58.30;;
21198;SDS011;10757;51.038;3.712;2023-02-15T04:19:34;110.07;;;56.80;;
21198;SDS011;10757;51.038;3.712;2023-02-15T04:22:18;104.72;;;58.80;;
21198;SDS011;10757;51.038;3.712;2023-02-15T04:25:03;111.05;;;58.40;;
21198;SDS011;10757;51.038;3.712;2023-02-15T04:27:36;107.00;;;60.83;;
21198;SDS011;10757;51.038;3.712;2023-02-15T04:30:02;103.70;;;59.13;;
21198;SDS011;10757;51.038;3.712;2023-02-15T04:32:29;113.95;;;59.55;;
21198;SDS011;10757;51.038;3.712;2023-02-15T04:34:54;105.63;;;58.22;;
21198;SDS011;10757;51.038;3.712;2023-02-15T04:37:20;115.95;;;60.42;;
21198;SDS011;10757;51.038;3.712;2023-02-15T04:39:46;111.68;;;62.55;;
21198;SDS011;10757;51.038;3.712;2023-02-15T04:42:11;108.57;;;57.13;;
21198;SDS011;10757;51.038;3.712;2023-02-15T04:44:37;108.60;;;59.95;;
21198;SDS011;10757;51.038;3.712;2023-02-15T04:47:03;105.50;;;57.55;;
21198;SDS011;10757;51.038;3.712;2023-02-15T04:49:28;100.57;;;55.92;;
21198;SDS011;10757;51.038;3.712;2023-02-15T04:51:54;110.70;;;57.70;;
21198;SDS011;10757;51.038;3.712;2023-02-15T04:54:20;102.80;;;57.10;;
21198;SDS011;10757;51.038;3.712;2023-02-15T04:56:45;104.80;;;57.17;;
21198;SDS011;10757;51.038;3.712;2023-02-15T04:59:11;107.80;;;59.70;;
21198;SDS011;10757;51.038;3.712;2023-02-15T05:01:37;104.15;;;58.17;;
21198;SDS011;10757;51.038;3.712;2023-02-15T05:04:03;99.78;;;56.22;;
21198;SDS011;10757;51.038;3.712;2023-02-15T05:06:29;100.53;;;54.95;;
21198;SDS011;10757;51.038;3.712;2023-02-15T05:08:55;100.30;;;57.00;;
21198;SDS011;10757;51.038;3.712;2023-02-15T05:11:23;96.65;;;57.42;;
21198;SDS011;10757;51.038;3.712;2023-02-15T05:13:49;99.70;;;56.40;;
21198;SDS011;10757;51.038;3.712;2023-02-15T05:16:15;150.50;;;60.55;;
21198;SDS011;10757;51.038;3.712;2023-02-15T05:18:42;101.03;;;57.25;;
21198;SDS011;10757;51.038;3.712;2023-02-15T05:21:07;103.10;;;54.90;;
21198;SDS011;10757;51.038;3.712;2023-02-15T05:23:33;103.90;;;55.97;;
21198;SDS011;10757;51.038;3.712;2023-02-15T05:25:59;101.60;;;55.35;;
21198;SDS011;10757;51.038;3.712;2023-02-15T05:28:43;93.20;;;54.95;;
21198;SDS011;10757;51.038;3.712;2023-02-15T05:31:10;100.38;;;53.40;;
21198;SDS011;10757;51.038;3.712;2023-02-15T05:33:38;99.65;;;54.58;;
21198;SDS011;10757;51.038;3.712;2023-02-15T05:36:04;111.60;;;57.65;;
21198;SDS011;10757;51.038;3.712;2023-02-15T05:38:31;92.75;;;52.30;;
21198;SDS011;10757;51.038;3.712;2023-02-15T05:40:57;100.78;;;56.33;;
21198;SDS011;10757;51.038;3.712;2023-02-15T05:43:23;104.07;;;58.85;;
21198;SDS011;10757;51.038;3.712;2023-02-15T05:45:50;96.82;;;53.45;;
21198;SDS011;10757;51.038;3.712;2023-02-15T05:48:18;100.22;;;54.63;;
21198;SDS011;10757;51.038;3.712;2023-02-15T05:50:44;97.65;;;54.53;;
21198;SDS011;10757;51.038;3.712;2023-02-15T05:53:10;102.00;;;53.65;;
21198;SDS011;10757;51.038;3.712;2023-02-15T05:55:37;95.88;;;53.65;;
21198;SDS011;10757;51.038;3.712;2023-02-15T05:58:03;94.15;;;52.70;;
21198;SDS011;10757;51.038;3.712;2023-02-15T06:00:38;100.28;;;57.40;;
21198;SDS011;10757;51.038;3.712;2023-02-15T06:03:26;94.80;;;52.67;;
21198;SDS011;10757;51.038;3.712;2023-02-15T06:05:53;94.45;;;53.55;;
21198;SDS011;10757;51.038;3.712;2023-02-15T06:08:19;103.40;;;53.13;;
21198;SDS011;10757;51.038;3.712;2023-02-15T06:10:45;100.40;;;53.45;;
21198;SDS011;10757;51.038;3.712;2023-02-15T06:13:11;96.93;;;52.03;;
21198;SDS011;10757;51.038;3.712;2023-02-15T06:15:37;97.80;;;53.28;;
21198;SDS011;10757;51.038;3.712;2023-02-15T06:18:03;97.68;;;53.70;;
21198;SDS011;10757;51.038;3.712;2023-02-15T06:20:28;90.75;;;51.10;;
21198;SDS011;10757;51.038;3.712;2023-02-15T06:22:57;101.50;;;54.97;;
21198;SDS011;10757;51.038;3.712;2023-02-15T06:25:23;97.60;;;52.55;;
21198;SDS011;10757;51.038;3.712;2023-02-15T06:27:49;89.22;;;52.28;;
21198;SDS011;10757;51.038;3.712;2023-02-15T06:30:15;100.40;;;51.75;;
21198;SDS011;10757;51.038;3.712;2023-02-15T06:32:41;90.07;;;53.30;;
21198;SDS011;10757;51.038;3.712;2023-02-15T06:35:07;97.93;;;50.58;;
21198;SDS011;10757;51.038;3.712;2023-02-15T06:37:33;96.57;;;53.53;;
21198;SDS011;10757;51.038;3.712;2023-02-15T06:39:59;96.20;;;51.40;;
21198;SDS011;10757;51.038;3.712;2023-02-15T06:42:25;109.97;;;64.00;;
21198;SDS011;10757;51.038;3.712;2023-02-15T06:44:50;122.50;;;71.45;;
21198;SDS011;10757;51.038;3.712;2023-02-15T06:47:16;136.00;;;84.20;;
21198;SDS011;10757;51.038;3.712;2023-02-15T06:49:42;133.88;;;80.38;;
21198;SDS011;10757;51.038;3.712;2023-02-15T06:52:08;114.65;;;68.45;;
21198;SDS011;10757;51.038;3.712;2023-02-15T06:54:34;111.88;;;63.97;;
21198;SDS011;10757;51.038;3.712;2023-02-15T06:57:00;106.35;;;61.13;;
21198;SDS011;10757;51.038;3.712;2023-02-15T06:59:28;96.82;;;51.38;;
21198;SDS011;10757;51.038;3.712;2023-02-15T07:01:54;90.80;;;49.05;;
21198;SDS011;10757;51.038;3.712;2023-02-15T07:04:20;85.07;;;48.33;;
21198;SDS011;10757;51.038;3.712;2023-02-15T07:06:46;93.43;;;49.60;;
21198;SDS011;10757;51.038;3.712;2023-02-15T07:09:12;88.55;;;49.08;;
21198;SDS011;10757;51.038;3.712;2023-02-15T07:11:37;88.88;;;47.85;;
21198;SDS011;10757;51.038;3.712;2023-02-15T07:14:23;91.32;;;47.78;;
21198;SDS011;10757;51.038;3.712;2023-02-15T07:16:49;88.78;;;50.58;;
21198;SDS011;10757;51.038;3.712;2023-02-15T07:19:14;91.20;;;47.97;;
21198;SDS011;10757;51.038;3.712;2023-02-15T07:21:40;87.72;;;45.92;;
21198;SDS011;10757;51.038;3.712;2023-02-15T07:24:06;89.75;;;47.15;;
21198;SDS011;10757;51.038;3.712;2023-02-15T07:26:32;86.70;;;47.40;;
21198;SDS011;10757;51.038;3.712;2023-02-15T07:28:58;81.05;;;46.17;;
21198;SDS011;10757;51.038;3.712;2023-02-15T07:31:23;82.53;;;45.75;;
21198;SDS011;10757;51.038;3.712;2023-02-15T07:33:49;81.40;;;47.40;;
21198;SDS011;10757;51.038;3.712;2023-02-15T07:36:15;85.50;;;44.58;;
21198;SDS011;10757;51.038;3.712;2023-02-15T07:38:41;87.28;;;47.05;;
21198;SDS011;10757;51.038;3.712;2023-02-15T07:41:12;86.35;;;46.30;;
21198;SDS011;10757;51.038;3.712;2023-02-15T07:43:41;82.63;;;45.22;;
21198;SDS011;10757;51.038;3.712;2023-02-15T07:46:09;87.18;;;46.80;;
21198;SDS011;10757;51.038;3.712;2023-02-15T07:48:37;83.00;;;45.67;;
21198;SDS011;10757;51.038;3.712;2023-02-15T07:51:04;99.95;;;51.40;;
21198;SDS011;10757;51.038;3.712;2023-02-15T07:53:31;89.00;;;48.47;;
21198;SDS011;10757;51.038;3.712;2023-02-15T07:55:58;87.68;;;45.63;;
21198;SDS011;10757;51.038;3.712;2023-02-15T07:58:31;86.25;;;48.10;;
21198;SDS011;10757;51.038;3.712;2023-02-15T08:01:17;90.88;;;46.90;;
21198;SDS011;10757;51.038;3.712;2023-02-15T08:03:55;84.57;;;46.70;;
21198;SDS011;10757;51.038;3.712;2023-02-15T08:06:24;87.00;;;47.80;;
21198;SDS011;10757;51.038;3.712;2023-02-15T08:08:52;85.10;;;49.58;;
21198;SDS011;10757;51.038;3.712;2023-02-15T08:11:19;87.25;;;48.60;;
21198;SDS011;10757;51.038;3.712;2023-02-15T08:13:55;83.18;;;45.83;;
21198;SDS011;10757;51.038;3.712;2023-02-15T08:21:35;85.05;;;46.75;;
21198;SDS011;10757;51.038;3.712;2023-02-15T08:24:03;79.85;;;46.95;;
21198;SDS011;10757;51.038;3.712;2023-02-15T08:26:31;83.80;;;45.67;;
21198;SDS011;10757;51.038;3.712;2023-02-15T08:28:59;84.80;;;47.13;;
21198;SDS011;10757;51.038;3.712;2023-02-15T08:31:31;88.35;;;47.58;;
21198;SDS011;10757;51.038;3.712;2023-02-15T08:33:57;83.03;;;44.50;;
21198;SDS011;10757;51.038;3.712;2023-02-15T08:36:26;80.72;;;43.47;;
21198;SDS011;10757;51.038;3.712;2023-02-15T08:38:58;83.95;;;43.97;;
21198;SDS011;10757;51.038;3.712;2023-02-15T08:41:27;74.45;;;40.15;;
21198;SDS011;10757;51.038;3.712;2023-02-15T08:43:58;76.85;;;41.63;;
21198;SDS011;10757;51.038;3.712;2023-02-15T08:46:27;70.15;;;41.08;;
21198;SDS011;10757;51.038;3.712;2023-02-15T08:48:57;66.18;;;36.53;;
21198;SDS011;10757;51.038;3.712;2023-02-15T08:51:24;67.40;;;37.38;;
21198;SDS011;10757;51.038;3.712;2023-02-15T08:53:54;64.22;;;36.45;;
21198;SDS011;10757;51.038;3.712;2023-02-15T08:56:23;62.63;;;35.22;;
21198;SDS011;10757;51.038;3.712;2023-02-15T08:58:51;66.93;;;35.55;;
21198;SDS011;10757;51.038;3.712;2023-02-15T09:01:21;61.35;;;35.42;;
21198;SDS011;10757;51.038;3.712;2023-02-15T09:03:58;59.83;;;34.75;;
21198;SDS011;10757;51.038;3.712;2023-02-15T09:06:29;63.17;;;34.72;;
21198;SDS011;10757;51.038;3.712;2023-02-15T09:08:54;63.95;;;36.38;;
21198;SDS011;10757;51.038;3.712;2023-02-15T09:11:22;61.90;;;35.03;;
21198;SDS011;10757;51.038;3.712;2023-02-15T09:13:54;60.60;;;32.80;;
21198;SDS011;10757;51.038;3.712;2023-02-15T09:16:23;61.75;;;32.72;;
21198;SDS011;10757;51.038;3.712;2023-02-15T09:18:51;61.38;;;35.50;;
21198;SDS011;10757;51.038;3.712;2023-02-15T09:21:19;59.03;;;33.88;;
21198;SDS011;10757;51.038;3.712;2023-02-15T09:23:47;57.20;;;34.20;;
21198;SDS011;10757;51.038;3.712;2023-02-15T09:26:18;58.95;;;34.50;;
21198;SDS011;10757;51.038;3.712;2023-02-15T09:28:46;56.20;;;34.05;;
21198;SDS011;10757;51.038;3.712;2023-02-15T09:31:15;65.28;;;33.83;;
21198;SDS011;10757;51.038;3.712;2023-02-15T09:33:42;59.65;;;33.38;;
21198;SDS011;10757;51.038;3.712;2023-02-15T09:36:14;58.30;;;32.83;;
21198;SDS011;10757;51.038;3.712;2023-02-15T09:38:44;57.95;;;34.15;;
21198;SDS011;10757;51.038;3.712;2023-02-15T09:58:06;57.20;;;33.10;;
21198;SDS011;10757;51.038;3.712;2023-02-15T10:16:52;56.95;;;32.35;;
21198;SDS011;10757;51.038;3.712;2023-02-15T10:19:31;65.68;;;33.38;;
21198;SDS011;10757;51.038;3.712;2023-02-15T10:22:29;61.95;;;31.10;;
21198;SDS011;10757;51.038;3.712;2023-02-15T10:27:58;59.88;;;31.77;;
21198;SDS011;10757;51.038;3.712;2023-02-15T10:30:36;53.75;;;32.08;;
21198;SDS011;10757;51.038;3.712;2023-02-15T10:52:24;57.88;;;30.95;;
21198;SDS011;10757;51.038;3.712;2023-02-15T10:55:08;58.00;;;32.47;;
21198;SDS011;10757;51.038;3.712;2023-02-15T11:00:45;57.53;;;31.90;;
21198;SDS011;10757;51.038;3.712;2023-02-15T11:03:40;63.22;;;32.10;;
21198;SDS011;10757;51.038;3.712;2023-02-15T11:06:20;97.57;;;33.78;;
21198;SDS011;10757;51.038;3.712;2023-02-15T11:09:09;58.03;;;32.38;;
21198;SDS011;10757;51.038;3.712;2023-02-15T11:11:39;54.03;;;31.40;;
21198;SDS011;10757;51.038;3.712;2023-02-15T11:14:34;62.75;;;33.95;;
21198;SDS011;10757;51.038;3.712;2023-02-15T11:17:19;58.20;;;33.47;;
21198;SDS011;10757;51.038;3.712;2023-02-15T11:19:52;57.50;;;33.05;;
21198;SDS011;10757;51.038;3.712;2023-02-15T11:22:34;53.40;;;32.95;;
21198;SDS011;10757;51.038;3.712;2023-02-15T11:25:01;56.15;;;33.00;;
21198;SDS011;10757;51.038;3.712;2023-02-15T11:27:29;57.95;;;31.45;;
21198;SDS011;10757;51.038;3.712;2023-02-15T11:29:59;62.72;;;36.60;;
21198;SDS011;10757;51.038;3.712;2023-02-15T11:32:55;61.00;;;34.10;;
21198;SDS011;10757;51.038;3.712;2023-02-15T11:35:27;51.53;;;30.35;;
21198;SDS011;10757;51.038;3.712;2023-02-15T11:40:28;57.97;;;31.85;;
21198;SDS011;10757;51.038;3.712;2023-02-15T11:43:00;59.28;;;32.75;;
21198;SDS011;10757;51.038;3.712;2023-02-15T11:45:31;66.28;;;32.70;;
21198;SDS011;10757;51.038;3.712;2023-02-15T11:48:01;58.08;;;32.13;;
21198;SDS011;10757;51.038;3.712;2023-02-15T11:50:37;50.78;;;31.15;;
21198;SDS011;10757;51.038;3.712;2023-02-15T11:53:04;58.65;;;32.10;;
21198;SDS011;10757;51.038;3.712;2023-02-15T11:55:35;81.63;;;34.00;;
21198;SDS011;10757;51.038;3.712;2023-02-15T11:58:06;58.85;;;33.17;;
21198;SDS011;10757;51.038;3.712;2023-02-15T12:00:39;59.42;;;32.05;;
21198;SDS011;10757;51.038;3.712;2023-02-15T12:03:19;55.05;;;32.30;;
21198;SDS011;10757;51.038;3.712;2023-02-15T12:05:57;62.58;;;34.05;;
21198;SDS011;10757;51.038;3.712;2023-02-15T12:08:26;54.42;;;31.98;;
21198;SDS011;10757;51.038;3.712;2023-02-15T12:11:09;57.40;;;33.63;;
21198;SDS011;10757;51.038;3.712;2023-02-15T12:13:57;65.85;;;32.42;;
21198;SDS011;10757;51.038;3.712;2023-02-15T12:16:27;58.03;;;31.27;;
21198;SDS011;10757;51.038;3.712;2023-02-15T12:18:57;53.33;;;31.75;;
21198;SDS011;10757;51.038;3.712;2023-02-15T12:21:26;53.45;;;30.70;;
21198;SDS011;10757;51.038;3.712;2023-02-15T12:24:09;67.95;;;33.55;;
21198;SDS011;10757;51.038;3.712;2023-02-15T12:26:42;61.55;;;32.13;;
21198;SDS011;10757;51.038;3.712;2023-02-15T12:29:12;51.97;;;30.17;;
21198;SDS011;10757;51.038;3.712;2023-02-15T12:31:45;52.15;;;31.08;;
21198;SDS011;10757;51.038;3.712;2023-02-15T12:34:20;58.25;;;32.83;;
21198;SDS011;10757;51.038;3.712;2023-02-15T12:36:51;51.88;;;30.50;;
21198;SDS011;10757;51.038;3.712;2023-02-15T12:39:24;46.03;;;28.77;;
21198;SDS011;10757;51.038;3.712;2023-02-15T12:44:34;49.25;;;30.40;;
21198;SDS011;10757;51.038;3.712;2023-02-15T12:49:42;54.30;;;31.65;;
21198;SDS011;10757;51.038;3.712;2023-02-15T12:54:46;58.60;;;32.80;;
21198;SDS011;10757;51.038;3.712;2023-02-15T12:57:32;57.75;;;32.70;;
21198;SDS011;10757;51.038;3.712;2023-02-15T12:59:59;55.78;;;30.38;;
21198;SDS011;10757;51.038;3.712;2023-02-15T13:05:04;51.75;;;31.45;;
21198;SDS011;10757;51.038;3.712;2023-02-15T13:07:50;71.55;;;38.65;;
21198;SDS011;10757;51.038;3.712;2023-02-15T13:10:29;60.25;;;32.00;;
21198;SDS011;10757;51.038;3.712;2023-02-15T13:12:58;55.05;;;31.02;;
21198;SDS011;10757;51.038;3.712;2023-02-15T13:15:32;49.88;;;30.85;;
21198;SDS011;10757;51.038;3.712;2023-02-15T13:18:01;52.75;;;31.77;;
21198;SDS011;10757;51.038;3.712;2023-02-15T13:20:30;54.20;;;31.60;;
21198;SDS011;10757;51.038;3.712;2023-02-15T13:23:01;54.03;;;32.05;;
21198;SDS011;10757;51.038;3.712;2023-02-15T13:25:37;51.25;;;32.33;;
21198;SDS011;10757;51.038;3.712;2023-02-15T13:28:16;53.47;;;33.28;;
21198;SDS011;10757;51.038;3.712;2023-02-15T13:30:47;55.30;;;33.35;;
21198;SDS011;10757;51.038;3.712;2023-02-15T13:33:23;61.13;;;32.63;;
21198;SDS011;10757;51.038;3.712;2023-02-15T13:36:01;54.40;;;33.20;;
21198;SDS011;10757;51.038;3.712;2023-02-15T13:41:27;56.33;;;33.60;;
21198;SDS011;10757;51.038;3.712;2023-02-15T13:53:09;50.95;;;32.08;;
21198;SDS011;10757;51.038;3.712;2023-02-15T13:55:57;52.28;;;31.77;;
21198;SDS011;10757;51.038;3.712;2023-02-15T14:31:41;55.55;;;31.17;;
21198;SDS011;10757;51.038;3.712;2023-02-15T14:34:19;60.47;;;31.25;;
21198;SDS011;10757;51.038;3.712;2023-02-15T14:36:46;55.78;;;31.63;;
21198;SDS011;10757;51.038;3.712;2023-02-15T14:45:05;55.53;;;32.97;;
21198;SDS011;10757;51.038;3.712;2023-02-15T14:47:48;52.70;;;32.85;;
21198;SDS011;10757;51.038;3.712;2023-02-15T14:56:16;52.05;;;31.50;;
21198;SDS011;10757;51.038;3.712;2023-02-15T15:01:35;52.83;;;32.33;;
21198;SDS011;10757;51.038;3.712;2023-02-15T15:04:12;61.22;;;33.65;;
21198;SDS011;10757;51.038;3.712;2023-02-15T15:06:56;51.17;;;30.98;;
21198;SDS011;10757;51.038;3.712;2023-02-15T15:09:29;59.15;;;31.15;;
21198;SDS011;10757;51.038;3.712;2023-02-15T15:15:01;49.88;;;31.13;;
21198;SDS011;10757;51.038;3.712;2023-02-15T15:20:13;56.63;;;31.50;;
21198;SDS011;10757;51.038;3.712;2023-02-15T15:29:13;55.38;;;30.40;;
21198;SDS011;10757;51.038;3.712;2023-02-15T15:31:58;54.72;;;31.70;;
21198;SDS011;10757;51.038;3.712;2023-02-15T15:34:38;51.17;;;30.77;;
21198;SDS011;10757;51.038;3.712;2023-02-15T15:40:29;51.00;;;31.15;;
21198;SDS011;10757;51.038;3.712;2023-02-15T15:43:24;58.42;;;31.95;;
21198;SDS011;10757;51.038;3.712;2023-02-15T15:46:20;51.85;;;30.70;;
21198;SDS011;10757;51.038;3.712;2023-02-15T15:49:09;49.85;;;32.25;;
21198;SDS011;10757;51.038;3.712;2023-02-15T15:51:46;73.28;;;34.15;;
21198;SDS011;10757;51.038;3.712;2023-02-15T15:54:16;56.92;;;32.40;;
21198;SDS011;10757;51.038;3.712;2023-02-15T15:56:47;57.78;;;33.15;;
21198;SDS011;10757;51.038;3.712;2023-02-15T15:59:22;51.08;;;31.30;;
21198;SDS011;10757;51.038;3.712;2023-02-15T16:01:53;58.58;;;31.80;;
21198;SDS011;10757;51.038;3.712;2023-02-15T16:07:42;54.67;;;34.22;;
21198;SDS011;10757;51.038;3.712;2023-02-15T16:12:30;51.38;;;32.22;;
21198;SDS011;10757;51.038;3.712;2023-02-15T16:14:58;67.05;;;31.75;;
21198;SDS011;10757;51.038;3.712;2023-02-15T16:17:29;57.53;;;31.50;;
21198;SDS011;10757;51.038;3.712;2023-02-15T16:20:02;47.33;;;30.55;;
21198;SDS011;10757;51.038;3.712;2023-02-15T16:22:31;52.95;;;31.08;;
21198;SDS011;10757;51.038;3.712;2023-02-15T16:27:53;61.70;;;31.80;;
21198;SDS011;10757;51.038;3.712;2023-02-15T16:35:41;57.67;;;33.20;;
21198;SDS011;10757;51.038;3.712;2023-02-15T16:41:29;50.38;;;31.38;;
21198;SDS011;10757;51.038;3.712;2023-02-15T16:43:55;56.05;;;31.60;;
21198;SDS011;10757;51.038;3.712;2023-02-15T16:49:22;60.30;;;32.65;;
21198;SDS011;10757;51.038;3.712;2023-02-15T16:51:56;49.17;;;31.80;;
21198;SDS011;10757;51.038;3.712;2023-02-15T16:54:30;60.58;;;31.00;;
21198;SDS011;10757;51.038;3.712;2023-02-15T16:56:57;55.35;;;32.13;;
21198;SDS011;10757;51.038;3.712;2023-02-15T16:59:39;59.15;;;32.97;;
21198;SDS011;10757;51.038;3.712;2023-02-15T17:02:12;54.45;;;30.83;;
21198;SDS011;10757;51.038;3.712;2023-02-15T17:04:41;54.85;;;31.88;;
21198;SDS011;10757;51.038;3.712;2023-02-15T17:09:54;55.17;;;32.50;;
21198;SDS011;10757;51.038;3.712;2023-02-15T17:15:27;58.75;;;31.98;;
21198;SDS011;10757;51.038;3.712;2023-02-15T17:18:02;57.00;;;33.55;;
21198;SDS011;10757;51.038;3.712;2023-02-15T17:20:36;56.83;;;33.40;;
21198;SDS011;10757;51.038;3.712;2023-02-15T17:23:04;63.75;;;33.88;;
21198;SDS011;10757;51.038;3.712;2023-02-15T17:25:38;57.28;;;33.20;;
21198;SDS011;10757;51.038;3.712;2023-02-15T17:28:15;57.60;;;34.60;;
21198;SDS011;10757;51.038;3.712;2023-02-15T17:30:46;51.95;;;31.00;;
21198;SDS011;10757;51.038;3.712;2023-02-15T17:33:24;56.15;;;33.13;;
21198;SDS011;10757;51.038;3.712;2023-02-15T17:38:58;50.92;;;31.83;;
21198;SDS011;10757;51.038;3.712;2023-02-15T17:41:25;56.03;;;31.70;;
21198;SDS011;10757;51.038;3.712;2023-02-15T17:43:52;54.88;;;32.70;;
21198;SDS011;10757;51.038;3.712;2023-02-15T17:46:18;60.90;;;34.03;;
21198;SDS011;10757;51.038;3.712;2023-02-15T17:48:47;62.33;;;33.28;;
21198;SDS011;10757;51.038;3.712;2023-02-15T17:51:14;58.80;;;34.33;;
21198;SDS011;10757;51.038;3.712;2023-02-15T17:53:41;58.83;;;34.92;;
21198;SDS011;10757;51.038;3.712;2023-02-15T17:56:26;58.67;;;34.22;;
21198;SDS011;10757;51.038;3.712;2023-02-15T17:58:53;49.30;;;32.15;;
21198;SDS011;10757;51.038;3.712;2023-02-15T18:01:19;58.70;;;33.45;;
21198;SDS011;10757;51.038;3.712;2023-02-15T18:04:04;59.35;;;35.38;;
21198;SDS011;10757;51.038;3.712;2023-02-15T18:06:52;53.85;;;32.58;;
21198;SDS011;10757;51.038;3.712;2023-02-15T18:09:36;52.72;;;33.95;;
21198;SDS011;10757;51.038;3.712;2023-02-15T18:12:24;54.50;;;33.05;;